Hauptseite
METAR-TAF:

METAR-TAF

Flughäfen :

Flughafen Pohnpei

Pohnpei, Mikronesien

Breite: 06-59N, Länge: 158-12E, Höhe: 2 m

Beobachtung

Neuester Wetterbericht von vor 46 Minuten, um 23:51 UTC
Wind 9 kt aus Ost/Südost
Temperatur 29°C
Luftfeuchtigkeit 74%
Luftdruck 1010 hPa
Sichtweite: 24.1 km
Leicht bewölkt in der Höhe von 1800 ft
Durchbrochene Bewölkung in der Höhe von 13000 ft
Geschlossene Wolkendecke in der Höhe von 30000 ft

METAR: PTPN 202351Z 11009KT 15SM FEW018 BKN130 OVC300 29/24 A2982

Zeit: 11:37 (00:37 UTC)

Prognose

Neuester Wetterbericht von vor 55 Minuten, um 23:42 UTC
Gültige Prognose vom 21 um 00 UTC bis 21 um 24 UTC
Wind 11 kt aus Ost
Sichtweite: 10 km
Aufgelockert bewölkt in der Höhe von 1800 ft
Durchbrochene Bewölkung in der Höhe von 13000 ft
Schauer in der Nähe

TAF: PTPN 202342Z 2100/2124 08011KT P6SM VCSH SCT018 BKN130

Wetterbeobachtungen und Prognosen von mehr als 4000 Flughäfen (METAR und TAF Bericht).

Die verfügbaren Stationen werden durch gelbe und rote Markierungen auf der Karte dargestellt.

Führen Sie die Maus auf sie, um den Namen der Station zu sehen.

Darauf klicken, um die Beobachtung von Wetterbeobachtungen und Prognosen zu sehen.

Um die Karte zu ändern : klicken Sie auf den grünen Tasten mit einem schwarzen Kreuz Zum Vergrößern, auf den grünen Button mit einem Gedankenstrich zu verkleinern, oder auf die grünen Pfeile für benachbarte Karten.


METAR-TAF: